Time;durP1;ratioP1;P1;durP2;ratioP2;P2;SDS_P1;SDS_P2;PMS_P1;PMS_P2;Temp;Humidity;BMP_temperature;BMP_pressure;BME280_temperature;BME280_humidity;BME280_pressure;Samples;Min_cycle;Max_cycle;Signal;HPM_P1;HPM_P2
2023/02/03 00:00:48;;;;;;;5.23;3.10;;;16.60;59.50;;;;;;4991497;28;20492;-78
2023/02/03 00:03:17;;;;;;;5.10;2.97;;;16.60;59.60;;;;;;4989840;28;20457;-78
2023/02/03 00:05:45;;;;;;;5.53;2.57;;;16.60;59.50;;;;;;4991277;28;20459;-79
2023/02/03 00:08:13;;;;;;;5.10;2.87;;;16.60;59.60;;;;;;4991525;28;20477;-79
2023/02/03 00:10:41;;;;;;;3.83;2.50;;;16.60;59.60;;;;;;4991431;28;20973;-78
2023/02/03 00:13:09;;;;;;;4.97;2.50;;;16.60;59.70;;;;;;4991776;28;20614;-78
2023/02/03 00:15:37;;;;;;;5.00;2.77;;;16.60;59.60;;;;;;4991220;28;20858;-77
2023/02/03 00:18:05;;;;;;;2.53;2.33;;;16.60;59.60;;;;;;4991953;28;20450;-78
2023/02/03 00:20:35;;;;;;;5.20;2.53;;;16.60;59.50;;;;;;4989966;28;20479;-78
2023/02/03 00:23:04;;;;;;;6.37;2.90;;;16.70;59.60;;;;;;4990346;28;20445;-79
2023/02/03 00:25:32;;;;;;;3.90;2.40;;;16.60;59.60;;;;;;4993585;28;20441;-78
2023/02/03 00:28:01;;;;;;;5.33;2.40;;;16.60;59.50;;;;;;4993441;28;20465;-78
2023/02/03 00:30:29;;;;;;;2.67;2.10;;;16.60;59.60;;;;;;4992869;28;20501;-79
2023/02/03 00:32:57;;;;;;;5.73;2.80;;;16.70;59.60;;;;;;4995218;28;20457;-79
2023/02/03 00:35:25;;;;;;;7.33;2.90;;;16.60;59.60;;;;;;4993688;28;20457;-78
2023/02/03 00:37:55;;;;;;;5.70;2.80;;;16.60;59.60;;;;;;4992121;28;20453;-79
2023/02/03 00:40:24;;;;;;;6.93;2.50;;;16.70;59.60;;;;;;4990469;28;20976;-78
2023/02/03 00:42:53;;;;;;;4.17;2.37;;;16.70;59.60;;;;;;4991225;28;20456;-78
2023/02/03 00:45:21;;;;;;;5.27;2.80;;;16.70;59.60;;;;;;4992342;28;20949;-78
2023/02/03 00:47:49;;;;;;;3.90;2.73;;;16.70;59.60;;;;;;4989214;28;20480;-79
2023/02/03 00:50:17;;;;;;;5.63;2.80;;;16.60;59.50;;;;;;4993058;28;20465;-79
2023/02/03 00:52:45;;;;;;;2.67;2.20;;;16.70;59.80;;;;;;4993087;28;20451;-78
2023/02/03 00:55:14;;;;;;;2.97;2.37;;;16.70;59.80;;;;;;4996210;28;20456;-77
2023/02/03 00:57:42;;;;;;;5.67;2.50;;;16.60;59.70;;;;;;4994890;28;20500;-78
2023/02/03 01:00:11;;;;;;;5.47;2.63;;;16.60;59.60;;;;;;4997275;28;20449;-77
2023/02/03 01:02:38;;;;;;;5.37;3.27;;;16.60;59.60;;;;;;4996220;28;20452;-78
2023/02/03 01:05:07;;;;;;;4.27;3.30;;;16.60;59.70;;;;;;4995894;28;20476;-78
2023/02/03 01:07:35;;;;;;;4.90;3.33;;;16.70;59.80;;;;;;4995365;28;20491;-77
2023/02/03 01:10:03;;;;;;;7.60;3.77;;;16.70;59.70;;;;;;4996031;28;20464;-78
2023/02/03 01:12:33;;;;;;;4.83;3.47;;;16.60;59.60;;;;;;4993350;28;20473;-79
2023/02/03 01:15:01;;;;;;;5.90;3.80;;;16.70;59.70;;;;;;4996179;28;20453;-79
2023/02/03 01:17:29;;;;;;;6.07;3.80;;;16.60;59.70;;;;;;4995258;28;20464;-79
2023/02/03 01:19:57;;;;;;;7.90;3.87;;;16.70;59.60;;;;;;4987871;28;20457;-79
2023/02/03 01:22:25;;;;;;;5.53;3.77;;;16.60;59.60;;;;;;4999522;28;20479;-78
2023/02/03 01:24:53;;;;;;;5.40;4.03;;;16.70;59.80;;;;;;4991876;28;20464;-79
2023/02/03 01:27:21;;;;;;;4.17;3.17;;;16.60;60.00;;;;;;4994265;28;20483;-80
2023/02/03 01:29:50;;;;;;;5.10;3.33;;;16.70;59.80;;;;;;4992399;28;20472;-79
2023/02/03 01:32:18;;;;;;;4.73;3.27;;;16.70;59.60;;;;;;4994616;28;20484;-79
2023/02/03 01:34:46;;;;;;;5.90;3.00;;;16.70;59.70;;;;;;4994323;28;20465;-78
2023/02/03 01:37:16;;;;;;;5.83;3.13;;;16.70;59.60;;;;;;4995608;28;20454;-79
2023/02/03 01:39:44;;;;;;;3.37;2.93;;;16.70;59.70;;;;;;4992619;28;20474;-78
2023/02/03 01:42:12;;;;;;;4.10;3.10;;;16.70;59.70;;;;;;4991387;28;20843;-78
2023/02/03 01:44:43;;;;;;;4.23;3.37;;;16.70;59.60;;;;;;4992700;28;20453;-78
2023/02/03 01:47:15;;;;;;;3.30;3.00;;;16.70;59.60;;;;;;4994950;28;20457;-78
2023/02/03 01:49:44;;;;;;;4.90;3.47;;;16.70;59.60;;;;;;4993586;28;20887;-79
2023/02/03 01:52:12;;;;;;;3.43;2.80;;;16.70;59.70;;;;;;4994587;28;20469;-78
2023/02/03 01:54:41;;;;;;;3.37;2.93;;;16.70;59.70;;;;;;4993676;28;20461;-79
2023/02/03 01:57:12;;;;;;;5.23;3.30;;;16.80;59.70;;;;;;4995703;28;20500;-78
2023/02/03 01:59:40;;;;;;;4.13;3.13;;;16.70;59.60;;;;;;4994877;28;20453;-80
2023/02/03 02:02:08;;;;;;;4.87;2.53;;;16.80;59.70;;;;;;4991705;28;20481;-78
2023/02/03 02:04:39;;;;;;;3.63;3.00;;;16.70;59.60;;;;;;4993182;28;20461;-79
2023/02/03 02:07:07;;;;;;;3.17;2.87;;;16.70;59.70;;;;;;4994378;28;20450;-78
2023/02/03 02:09:35;;;;;;;5.33;3.40;;;16.70;59.70;;;;;;4993999;28;20477;-78
2023/02/03 02:12:04;;;;;;;4.10;2.97;;;16.70;59.70;;;;;;4991467;28;20469;-79
2023/02/03 02:14:32;;;;;;;5.27;2.73;;;16.70;59.70;;;;;;4992113;28;20453;-78
2023/02/03 02:17:03;;;;;;;3.50;2.90;;;16.70;59.70;;;;;;4989467;28;20540;-82
2023/02/03 02:19:52;;;;;;;3.63;2.67;;;16.70;59.60;;;;;;4993566;28;20987;-78
2023/02/03 02:22:20;;;;;;;7.77;2.77;;;16.80;59.80;;;;;;4990643;28;20473;-78
2023/02/03 02:24:59;;;;;;;3.93;2.30;;;16.80;59.80;;;;;;4991588;28;20468;-79
2023/02/03 02:27:49;;;;;;;3.07;2.23;;;16.70;59.60;;;;;;4991196;28;20524;-78
2023/02/03 02:30:26;;;;;;;4.90;3.10;;;16.80;60.50;;;;;;4989368;28;20474;-79
2023/02/03 02:33:04;;;;;;;2.80;2.60;;;16.80;59.80;;;;;;4994097;28;20449;-78
2023/02/03 02:35:42;;;;;;;4.60;2.40;;;16.70;59.80;;;;;;4992819;28;20460;-78
2023/02/03 02:38:14;;;;;;;2.20;2.07;;;16.80;59.90;;;;;;4993239;28;20453;-78
2023/02/03 02:40:44;;;;;;;3.70;2.43;;;16.70;59.80;;;;;;4997556;28;20469;-76
2023/02/03 02:43:13;;;;;;;4.23;2.90;;;16.80;59.80;;;;;;4994087;28;20445;-80
2023/02/03 02:45:44;;;;;;;5.10;2.90;;;16.70;59.80;;;;;;4994595;28;20453;-79
2023/02/03 02:48:17;;;;;;;2.50;2.30;;;16.80;59.90;;;;;;4995088;28;20465;-79
2023/02/03 02:50:47;;;;;;;6.10;2.63;;;16.70;59.80;;;;;;4993643;28;20493;-79
2023/02/03 02:53:15;;;;;;;3.60;2.33;;;16.70;59.80;;;;;;4994529;28;20461;-79
2023/02/03 02:55:44;;;;;;;2.97;2.67;;;16.80;59.90;;;;;;4993888;28;20499;-79
2023/02/03 02:58:13;;;;;;;2.20;2.00;;;16.80;59.90;;;;;;4993673;28;20468;-78
2023/02/03 03:00:41;;;;;;;2.80;2.37;;;16.80;59.90;;;;;;4993103;28;20477;-79
2023/02/03 03:03:14;;;;;;;3.73;2.63;;;16.80;59.70;;;;;;4992771;28;20459;-79
2023/02/03 03:05:44;;;;;;;3.57;2.27;;;16.80;59.80;;;;;;4991306;28;20460;-78
2023/02/03 03:08:12;;;;;;;2.57;2.37;;;16.80;59.80;;;;;;4988362;28;20452;-79
2023/02/03 03:10:39;;;;;;;2.40;2.30;;;16.80;59.90;;;;;;4991981;28;20518;-77
2023/02/03 03:13:09;;;;;;;3.70;2.60;;;16.80;59.90;;;;;;4996384;28;20449;-79
2023/02/03 03:15:36;;;;;;;3.73;2.70;;;16.80;59.80;;;;;;4992767;28;20453;-79
2023/02/03 03:18:05;;;;;;;2.67;2.47;;;16.80;59.80;;;;;;4994033;28;20457;-79
2023/02/03 03:20:36;;;;;;;4.27;2.40;;;16.80;59.80;;;;;;4992165;28;20469;-78
2023/02/03 03:23:05;;;;;;;2.33;2.13;;;16.70;59.80;;;;;;4991646;28;20477;-78
2023/02/03 03:25:36;;;;;;;2.67;2.40;;;16.80;59.80;;;;;;4993925;28;20485;-78
2023/02/03 03:28:07;;;;;;;7.80;3.27;;;16.80;59.90;;;;;;4992561;28;20535;-77
2023/02/03 03:30:36;;;;;;;3.30;2.30;;;16.80;59.80;;;;;;4992315;28;20490;-77
2023/02/03 03:33:04;;;;;;;2.97;2.40;;;16.80;59.90;;;;;;4992374;28;20462;-78
2023/02/03 03:35:34;;;;;;;3.27;2.60;;;16.70;59.80;;;;;;4988456;28;20456;-78
2023/02/03 03:38:06;;;;;;;5.37;2.50;;;16.70;59.80;;;;;;4988639;28;20468;-77
2023/02/03 03:40:37;;;;;;;2.40;2.20;;;16.80;59.90;;;;;;4992169;28;20469;-79
2023/02/03 03:43:06;;;;;;;3.57;2.20;;;16.80;59.90;;;;;;4991096;28;20445;-77
2023/02/03 03:45:35;;;;;;;3.70;2.30;;;16.80;59.90;;;;;;4994677;28;20456;-78
2023/02/03 03:48:05;;;;;;;2.80;2.33;;;16.80;59.90;;;;;;4991542;28;20445;-79
2023/02/03 03:50:35;;;;;;;2.20;2.03;;;16.80;59.80;;;;;;4991730;28;20488;-79
2023/02/03 03:53:04;;;;;;;2.43;2.10;;;16.80;59.90;;;;;;4989015;28;20452;-78
2023/02/03 03:55:32;;;;;;;2.60;2.27;;;16.80;59.70;;;;;;4991507;28;20458;-78
2023/02/03 03:58:01;;;;;;;2.37;2.17;;;16.80;59.80;;;;;;4993289;28;20484;-80
2023/02/03 04:00:30;;;;;;;4.00;2.77;;;16.80;59.80;;;;;;4992205;28;20465;-78
2023/02/03 04:02:59;;;;;;;3.40;2.00;;;16.80;59.90;;;;;;4992418;28;20461;-79
2023/02/03 04:05:27;;;;;;;3.97;2.40;;;16.80;59.80;;;;;;4992877;28;20453;-78
2023/02/03 04:07:55;;;;;;;3.00;2.40;;;16.80;59.80;;;;;;4991924;28;20811;-78
2023/02/03 04:10:26;;;;;;;3.20;2.23;;;16.80;59.80;;;;;;4991847;28;20472;-78
2023/02/03 04:12:55;;;;;;;2.30;2.10;;;16.80;59.90;;;;;;4991372;28;20477;-78
2023/02/03 04:15:23;;;;;;;4.97;2.73;;;16.80;59.90;;;;;;4990936;28;20480;-79
2023/02/03 04:17:51;;;;;;;2.33;2.13;;;16.80;59.80;;;;;;4990910;28;20453;-79
2023/02/03 04:20:19;;;;;;;3.40;2.50;;;16.80;59.80;;;;;;4985058;28;20836;-79
2023/02/03 04:22:48;;;;;;;4.93;2.33;;;16.80;59.90;;;;;;4986762;28;20454;-79
2023/02/03 04:25:16;;;;;;;2.40;1.80;;;16.80;59.70;;;;;;4991567;28;20461;-79
2023/02/03 04:27:45;;;;;;;2.20;2.00;;;16.80;59.80;;;;;;4990537;28;20492;-79
2023/02/03 04:30:13;;;;;;;5.27;2.40;;;16.80;59.70;;;;;;4993390;28;20465;-78
2023/02/03 04:32:42;;;;;;;5.47;2.60;;;16.80;59.80;;;;;;4982968;28;20468;-77
2023/02/03 04:35:09;;;;;;;3.87;2.03;;;16.80;59.80;;;;;;4989458;28;20470;-78
2023/02/03 04:37:37;;;;;;;3.20;2.50;;;16.80;59.80;;;;;;4987994;28;20465;-77
2023/02/03 04:40:06;;;;;;;3.17;2.50;;;16.80;59.80;;;;;;4991622;28;20452;-78
2023/02/03 04:42:36;;;;;;;3.87;2.07;;;16.80;59.90;;;;;;4990584;28;20477;-78
2023/02/03 04:45:06;;;;;;;2.37;1.97;;;16.80;59.70;;;;;;4990889;28;20476;-77
2023/02/03 04:47:35;;;;;;;4.27;2.20;;;16.80;59.80;;;;;;4990665;28;20457;-77
2023/02/03 04:50:05;;;;;;;2.73;2.20;;;16.80;59.80;;;;;;4991461;28;20496;-79
2023/02/03 04:52:33;;;;;;;3.10;2.17;;;16.80;59.80;;;;;;4992525;28;20488;-78
2023/02/03 04:55:02;;;;;;;4.17;2.30;;;16.80;59.70;;;;;;4993668;28;20445;-80
2023/02/03 04:57:31;;;;;;;4.93;2.27;;;16.80;59.90;;;;;;4994388;28;20523;-79
2023/02/03 04:59:58;;;;;;;3.37;2.23;;;16.80;59.80;;;;;;4991992;28;20455;-79
2023/02/03 05:02:28;;;;;;;3.83;2.43;;;16.80;59.80;;;;;;4993073;28;20524;-79
2023/02/03 05:04:56;;;;;;;3.63;2.40;;;16.80;59.90;;;;;;4992853;28;20534;-77
2023/02/03 05:07:24;;;;;;;3.70;2.23;;;16.80;59.90;;;;;;4991073;28;20457;-78
2023/02/03 05:09:52;;;;;;;2.70;2.37;;;16.80;59.80;;;;;;4990885;28;20453;-77
2023/02/03 05:12:19;;;;;;;2.73;2.30;;;16.80;59.90;;;;;;4990654;28;20484;-78
2023/02/03 05:14:48;;;;;;;3.23;2.17;;;16.80;59.80;;;;;;4990519;28;20472;-78
2023/02/03 05:17:16;;;;;;;3.13;2.00;;;16.80;59.80;;;;;;4986348;28;20453;-78
2023/02/03 05:19:45;;;;;;;2.80;2.33;;;16.80;59.80;;;;;;4990559;28;20457;-77
2023/02/03 05:22:13;;;;;;;2.03;1.93;;;16.90;59.80;;;;;;4990402;28;20483;-78
2023/02/03 05:24:41;;;;;;;2.20;1.93;;;16.90;59.90;;;;;;4987513;28;20542;-78
2023/02/03 05:27:09;;;;;;;3.77;2.33;;;16.80;59.80;;;;;;4991517;28;20479;-79
2023/02/03 05:29:37;;;;;;;5.03;2.40;;;16.90;59.90;;;;;;4987286;28;20473;-78
2023/02/03 05:32:05;;;;;;;3.53;2.30;;;16.90;59.90;;;;;;4989920;28;20500;-79
2023/02/03 05:34:33;;;;;;;4.60;2.10;;;16.80;59.80;;;;;;4990939;28;20461;-79
2023/02/03 05:37:02;;;;;;;2.30;1.97;;;16.80;59.70;;;;;;4991562;28;20448;-78
2023/02/03 05:39:30;;;;;;;4.40;2.47;;;16.80;59.70;;;;;;4993816;28;20461;-79
2023/02/03 05:41:58;;;;;;;3.27;2.30;;;16.90;59.80;;;;;;4993339;28;20499;-79
2023/02/03 05:44:26;;;;;;;3.33;2.17;;;16.90;59.80;;;;;;4992133;28;20456;-78
2023/02/03 05:46:54;;;;;;;4.70;2.43;;;16.90;59.80;;;;;;4991191;28;20520;-77
2023/02/03 05:49:22;;;;;;;5.07;2.40;;;16.80;59.70;;;;;;4994408;28;20527;-78
2023/02/03 05:51:51;;;;;;;5.57;3.07;;;16.80;59.70;;;;;;4994050;28;20484;-79
2023/02/03 05:54:20;;;;;;;4.77;2.40;;;16.90;59.80;;;;;;4993155;28;20460;-79
2023/02/03 05:56:48;;;;;;;2.63;2.43;;;16.90;59.80;;;;;;4992264;28;20468;-78
2023/02/03 05:59:15;;;;;;;4.00;2.03;;;16.90;59.80;;;;;;4992661;28;20457;-80
2023/02/03 06:01:43;;;;;;;2.80;2.20;;;16.80;59.70;;;;;;4989074;28;20470;-78
2023/02/03 06:04:11;;;;;;;4.03;2.20;;;16.80;59.70;;;;;;4994552;28;20467;-80
2023/02/03 06:06:39;;;;;;;3.67;2.17;;;16.90;59.80;;;;;;4995125;28;20460;-78
2023/02/03 06:09:07;;;;;;;4.37;2.30;;;16.80;59.80;;;;;;4993218;28;20453;-78
2023/02/03 06:11:37;;;;;;;4.60;2.40;;;16.80;59.80;;;;;;4994997;28;20488;-78
2023/02/03 06:14:05;;;;;;;2.53;2.07;;;16.80;59.80;;;;;;4994109;28;20459;-77
2023/02/03 06:16:33;;;;;;;9.93;2.47;;;16.80;59.70;;;;;;4992351;28;20449;-78
2023/02/03 06:19:01;;;;;;;2.47;2.23;;;16.90;59.80;;;;;;4993068;28;20517;-79
2023/02/03 06:21:29;;;;;;;8.90;2.60;;;16.90;59.80;;;;;;4994167;28;20473;-78
2023/02/03 06:23:56;;;;;;;3.47;2.50;;;16.80;59.80;;;;;;4992470;28;20456;-79
2023/02/03 06:26:24;;;;;;;2.97;2.27;;;16.80;59.70;;;;;;4993981;28;20473;-78
2023/02/03 06:28:54;;;;;;;5.77;2.23;;;16.90;59.80;;;;;;4994266;28;20457;-79
2023/02/03 06:31:22;;;;;;;3.30;2.20;;;16.90;59.80;;;;;;4989028;28;20465;-80
2023/02/03 06:33:50;;;;;;;3.00;2.20;;;16.90;59.80;;;;;;4995044;28;20453;-80
2023/02/03 06:36:18;;;;;;;5.53;2.20;;;16.90;59.80;;;;;;4995655;28;20456;-78
2023/02/03 06:38:46;;;;;;;6.30;2.07;;;16.90;59.80;;;;;;4995195;28;20464;-78
2023/02/03 06:41:13;;;;;;;3.27;2.40;;;16.90;59.80;;;;;;4994951;28;20481;-79
2023/02/03 06:43:41;;;;;;;5.70;2.10;;;16.90;59.70;;;;;;4996234;28;20468;-80
2023/02/03 06:46:11;;;;;;;5.43;2.43;;;16.90;59.80;;;;;;4996161;28;20465;-78
2023/02/03 06:48:39;;;;;;;4.50;2.50;;;16.90;59.70;;;;;;4994983;28;20520;-79
2023/02/03 06:51:07;;;;;;;4.40;2.50;;;16.90;59.80;;;;;;4991752;28;20512;-78
2023/02/03 06:53:35;;;;;;;2.60;2.17;;;16.90;59.80;;;;;;4991736;28;20468;-78
2023/02/03 06:56:04;;;;;;;3.40;2.23;;;16.90;59.70;;;;;;4991248;28;20477;-77
2023/02/03 06:58:32;;;;;;;2.63;1.93;;;16.90;59.80;;;;;;4993559;28;20458;-76
2023/02/03 07:01:00;;;;;;;5.57;2.13;;;16.90;59.70;;;;;;4992534;28;20481;-78
2023/02/03 07:03:29;;;;;;;4.17;2.20;;;16.90;59.80;;;;;;4992974;28;20464;-77
2023/02/03 07:05:56;;;;;;;4.50;2.00;;;16.90;59.70;;;;;;4994110;28;20457;-79
2023/02/03 07:08:24;;;;;;;5.10;2.10;;;16.90;59.80;;;;;;4993376;28;20465;-79
2023/02/03 07:10:53;;;;;;;3.83;2.47;;;16.90;59.70;;;;;;4991957;28;20651;-78
2023/02/03 07:13:21;;;;;;;2.10;1.90;;;16.90;59.80;;;;;;4993070;28;20457;-78
2023/02/03 07:15:49;;;;;;;3.90;2.07;;;16.90;59.80;;;;;;4992553;28;20473;-79
2023/02/03 07:18:18;;;;;;;3.60;2.37;;;17.00;59.80;;;;;;4999548;28;20489;-78
2023/02/03 07:21:07;;;;;;;2.83;2.03;;;16.90;59.80;;;;;;4991902;28;20473;-78
2023/02/03 07:23:35;;;;;;;4.87;2.13;;;17.00;59.80;;;;;;4991000;28;20960;-78
2023/02/03 07:26:03;;;;;;;4.17;2.10;;;17.00;59.70;;;;;;4991913;28;20481;-77
2023/02/03 07:28:31;;;;;;;3.47;2.23;;;17.00;59.80;;;;;;4990121;28;20457;-78
2023/02/03 07:30:59;;;;;;;2.80;2.03;;;16.90;59.70;;;;;;4993065;28;20477;-79
2023/02/03 07:33:28;;;;;;;5.50;2.30;;;17.00;59.80;;;;;;4991604;28;20508;-78
2023/02/03 07:35:56;;;;;;;4.83;2.20;;;17.00;59.70;;;;;;4992619;28;20457;-78
2023/02/03 07:38:26;;;;;;;5.50;2.60;;;17.00;59.80;;;;;;4995442;28;20457;-78
2023/02/03 07:40:53;;;;;;;2.97;2.03;;;17.00;59.70;;;;;;4993617;28;20488;-78
2023/02/03 07:43:21;;;;;;;3.63;2.23;;;17.00;59.80;;;;;;4995161;28;20453;-78
2023/02/03 07:45:49;;;;;;;4.50;2.43;;;17.00;59.70;;;;;;4998885;28;20460;-78
2023/02/03 07:48:17;;;;;;;4.40;2.37;;;17.10;59.80;;;;;;4992615;28;20453;-78
2023/02/03 07:50:47;;;;;;;2.30;2.10;;;17.00;59.80;;;;;;4992801;28;20484;-78
2023/02/03 07:53:15;;;;;;;13.50;2.90;;;17.00;59.70;;;;;;4993065;28;20469;-79
2023/02/03 07:55:44;;;;;;;5.00;2.30;;;17.00;59.90;;;;;;4988162;28;20470;-79
2023/02/03 07:58:12;;;;;;;3.10;2.13;;;17.00;59.80;;;;;;4994855;28;20453;-79
2023/02/03 08:00:40;;;;;;;4.00;2.10;;;17.10;59.90;;;;;;4993583;28;20484;-79
2023/02/03 08:03:07;;;;;;;3.50;1.73;;;17.00;59.80;;;;;;4993442;28;20452;-79
2023/02/03 08:05:35;;;;;;;3.93;2.23;;;17.00;59.70;;;;;;4993251;28;20469;-79
2023/02/03 08:08:03;;;;;;;5.83;2.27;;;17.00;59.80;;;;;;4992629;28;20466;-79
2023/02/03 08:10:31;;;;;;;2.80;2.10;;;17.00;59.80;;;;;;4991055;28;20479;-79
2023/02/03 08:13:00;;;;;;;2.63;2.20;;;17.00;59.90;;;;;;4992679;28;20469;-79
2023/02/03 08:15:28;;;;;;;6.57;2.30;;;17.10;59.90;;;;;;4993885;28;20841;-79
2023/02/03 08:17:56;;;;;;;4.63;2.33;;;17.10;60.00;;;;;;4992148;28;20453;-78
2023/02/03 08:20:23;;;;;;;3.73;2.20;;;17.10;59.90;;;;;;4993036;28;20460;-79
2023/02/03 08:22:52;;;;;;;3.80;2.50;;;17.10;59.80;;;;;;4993253;28;20453;-78
2023/02/03 08:25:20;;;;;;;5.23;2.03;;;17.10;59.80;;;;;;4994085;28;20455;-79
2023/02/03 08:27:49;;;;;;;6.33;2.50;;;17.10;59.70;;;;;;4989559;28;20461;-79
2023/02/03 08:30:18;;;;;;;5.17;2.70;;;17.10;59.80;;;;;;4994206;28;20457;-79
2023/02/03 08:32:46;;;;;;;6.60;2.33;;;17.20;59.90;;;;;;4995033;28;20513;-77
2023/02/03 08:35:14;;;;;;;4.50;2.63;;;17.20;59.90;;;;;;4992129;28;20451;-79
2023/02/03 08:37:42;;;;;;;3.43;2.27;;;17.20;59.80;;;;;;4993035;28;20494;-79
2023/02/03 08:40:11;;;;;;;3.53;2.00;;;17.20;59.90;;;;;;4992194;28;20533;-77
2023/02/03 08:42:39;;;;;;;4.83;2.80;;;17.20;59.90;;;;;;4995302;28;20480;-79
2023/02/03 08:45:08;;;;;;;2.67;2.00;;;17.20;59.80;;;;;;4993679;28;20460;-78
2023/02/03 08:47:38;;;;;;;3.73;2.30;;;17.20;59.80;;;;;;4995553;28;20461;-78
2023/02/03 08:50:06;;;;;;;6.50;2.63;;;17.20;59.70;;;;;;4993600;28;20480;-79
2023/02/03 08:52:34;;;;;;;5.50;2.27;;;17.30;59.80;;;;;;4996143;28;20487;-78
2023/02/03 08:55:02;;;;;;;4.77;2.47;;;17.30;59.90;;;;;;4992690;28;20517;-78
2023/02/03 08:57:32;;;;;;;5.57;2.33;;;17.20;59.90;;;;;;4995973;28;20467;-77
2023/02/03 09:00:00;;;;;;;4.47;2.20;;;17.30;60.00;;;;;;4996692;28;20538;-78
2023/02/03 09:02:28;;;;;;;5.00;2.13;;;17.30;59.90;;;;;;4990147;28;20461;-78
2023/02/03 09:04:57;;;;;;;4.57;2.63;;;17.30;60.00;;;;;;4993042;28;20448;-79
2023/02/03 09:07:25;;;;;;;3.47;2.50;;;17.30;60.00;;;;;;4994603;28;20460;-78
2023/02/03 09:09:53;;;;;;;4.17;2.13;;;17.30;60.20;;;;;;4989517;28;20453;-79
2023/02/03 09:12:21;;;;;;;6.57;2.67;;;17.30;60.00;;;;;;4983954;28;20481;-79
2023/02/03 09:14:52;;;;;;;5.90;2.70;;;17.30;60.10;;;;;;4989380;28;20450;-78
2023/02/03 09:17:20;;;;;;;3.57;2.40;;;17.30;60.20;;;;;;4993413;28;20441;-78
2023/02/03 09:19:48;;;;;;;6.07;2.70;;;17.40;60.10;;;;;;4999091;28;20448;-79
2023/02/03 09:22:17;;;;;;;6.50;2.47;;;17.40;60.00;;;;;;4998063;28;20507;-79
2023/02/03 09:24:47;;;;;;;4.30;2.37;;;17.40;60.00;;;;;;4991397;28;20449;-76
2023/02/03 09:27:15;;;;;;;9.57;2.90;;;17.40;60.10;;;;;;5001763;28;20543;-78
2023/02/03 09:29:43;;;;;;;7.90;2.83;;;17.50;60.30;;;;;;4998481;28;20459;-79
2023/02/03 09:32:11;;;;;;;8.67;2.70;;;17.50;60.40;;;;;;4997595;28;20549;-78
2023/02/03 09:34:42;;;;;;;5.27;2.30;;;17.60;60.20;;;;;;4991425;28;20475;-78
2023/02/03 09:37:10;;;;;;;5.53;2.50;;;17.70;60.10;;;;;;5002364;28;20445;-79
2023/02/03 09:39:40;;;;;;;4.60;2.37;;;17.80;59.90;;;;;;4996842;28;20453;-78
2023/02/03 09:42:33;;;;;;;6.83;2.33;;;17.90;59.90;;;;;;4996182;28;20471;-79
2023/02/03 09:45:10;;;;;;;3.63;2.30;;;17.90;59.90;;;;;;4992840;28;20456;-79
2023/02/03 09:47:39;;;;;;;9.67;2.60;;;18.10;59.90;;;;;;4996903;28;20453;-78
2023/02/03 09:50:08;;;;;;;6.83;2.40;;;18.10;59.70;;;;;;4997513;28;20457;-78
2023/02/03 09:52:38;;;;;;;4.47;2.60;;;18.20;59.60;;;;;;4996386;28;20480;-78
2023/02/03 09:55:16;;;;;;;5.80;2.47;;;18.30;59.50;;;;;;4993597;28;20457;-78
2023/02/03 09:57:47;;;;;;;6.30;2.37;;;18.30;59.50;;;;;;5002254;28;20449;-78
2023/02/03 10:00:19;;;;;;;7.47;2.30;;;18.30;59.50;;;;;;4993010;28;20464;-77
2023/02/03 10:02:55;;;;;;;9.33;2.57;;;18.50;59.60;;;;;;4994548;28;20526;-78
2023/02/03 10:05:25;;;;;;;7.23;2.80;;;18.60;59.60;;;;;;4992387;28;20456;-78
2023/02/03 10:07:58;;;;;;;6.60;2.93;;;18.70;59.50;;;;;;4992706;28;20479;-79
2023/02/03 10:10:33;;;;;;;6.00;2.90;;;18.80;59.50;;;;;;4992929;28;20457;-78
2023/02/03 10:13:06;;;;;;;9.70;2.80;;;19.00;59.50;;;;;;4994782;28;20834;-78
2023/02/03 10:16:00;;;;;;;8.37;2.43;;;19.00;59.20;;;;;;4993252;28;20452;-78
2023/02/03 10:18:29;;;;;;;4.50;2.73;;;19.10;59.20;;;;;;4994450;28;20456;-77
2023/02/03 10:20:58;;;;;;;14.20;3.10;;;19.20;59.40;;;;;;4992751;28;20472;-79
2023/02/03 10:23:28;;;;;;;10.10;3.43;;;19.30;59.30;;;;;;4992340;28;20461;-81
2023/02/03 10:25:57;;;;;;;9.70;2.90;;;19.40;59.30;;;;;;4994732;28;21012;-79
2023/02/03 10:28:27;;;;;;;10.00;2.77;;;19.50;59.20;;;;;;4996791;28;20456;-79
2023/02/03 10:30:56;;;;;;;6.20;2.47;;;19.50;59.10;;;;;;4998519;28;20472;-77
2023/02/03 10:33:25;;;;;;;6.80;2.77;;;19.60;59.20;;;;;;4989576;28;20504;-78
2023/02/03 10:35:55;;;;;;;11.60;3.00;;;19.70;58.90;;;;;;4993565;28;20489;-78
2023/02/03 10:38:41;;;;;;;9.57;3.30;;;19.60;58.60;;;;;;4992151;28;20448;-77
2023/02/03 10:41:10;;;;;;;10.17;3.37;;;19.50;58.50;;;;;;4990196;28;20485;-78
2023/02/03 10:43:51;;;;;;;12.53;3.23;;;19.50;58.80;;;;;;4994955;28;20484;-76
2023/02/03 10:46:20;;;;;;;11.03;3.43;;;19.60;58.80;;;;;;4993253;28;20532;-81
2023/02/03 10:48:49;;;;;;;12.67;3.60;;;19.60;58.80;;;;;;4991486;28;20461;-78
2023/02/03 10:51:21;;;;;;;8.03;2.53;;;19.70;58.90;;;;;;4990619;28;20476;-78
2023/02/03 10:53:51;;;;;;;16.77;3.40;;;19.90;58.70;;;;;;4992067;28;20486;-78
2023/02/03 10:56:22;;;;;;;11.63;3.37;;;20.10;58.60;;;;;;4988589;28;20480;-78
2023/02/03 10:58:52;;;;;;;15.30;4.03;;;20.30;58.40;;;;;;4995852;28;20463;-79
2023/02/03 11:01:21;;;;;;;12.30;3.17;;;20.40;58.10;;;;;;4994299;28;20476;-78
2023/02/03 11:04:00;;;;;;;12.00;3.50;;;20.60;58.00;;;;;;4993988;28;20490;-77
2023/02/03 11:06:28;;;;;;;11.87;3.40;;;20.90;58.30;;;;;;4992541;28;20448;-79
2023/02/03 11:08:56;;;;;;;8.27;3.20;;;21.20;58.30;;;;;;4989704;28;20453;-80
2023/02/03 11:11:27;;;;;;;10.70;3.53;;;21.60;58.00;;;;;;4985683;28;20480;-79
2023/02/03 11:13:56;;;;;;;15.33;3.47;;;21.70;57.20;;;;;;4987045;28;20477;-78
2023/02/03 11:16:24;;;;;;;13.10;3.37;;;21.90;57.10;;;;;;4991988;28;20464;-78
2023/02/03 11:18:57;;;;;;;11.43;3.60;;;22.00;56.90;;;;;;4990352;28;20462;-79
2023/02/03 11:21:28;;;;;;;11.77;3.77;;;22.30;57.10;;;;;;4992878;28;20448;-79
2023/02/03 11:24:03;;;;;;;13.17;3.80;;;22.50;56.80;;;;;;4993600;28;20449;-81
2023/02/03 11:26:34;;;;;;;9.60;3.87;;;22.70;56.90;;;;;;4992614;28;20476;-78
2023/02/03 11:29:04;;;;;;;17.53;4.23;;;22.90;57.00;;;;;;4993353;28;20485;-80
2023/02/03 11:31:33;;;;;;;17.57;3.97;;;23.10;56.50;;;;;;4990062;28;20484;-78
2023/02/03 11:34:03;;;;;;;12.80;3.60;;;23.40;56.10;;;;;;4991660;28;20483;-77
2023/02/03 11:36:33;;;;;;;9.67;3.23;;;23.50;55.60;;;;;;4991982;28;20938;-77
2023/02/03 11:39:26;;;;;;;9.80;3.17;;;23.50;55.60;;;;;;4992528;28;20427;-77
2023/02/03 11:41:56;;;;;;;10.27;3.13;;;23.50;55.60;;;;;;4994883;28;20461;-78
2023/02/03 11:44:28;;;;;;;11.33;3.30;;;23.60;56.00;;;;;;4991851;28;20475;-77
2023/02/03 11:47:00;;;;;;;11.80;3.77;;;23.80;56.00;;;;;;4992518;28;20457;-77
2023/02/03 11:50:03;;;;;;;11.77;4.00;;;24.00;56.00;;;;;;4989245;28;20459;-76
2023/02/03 11:52:53;;;;;;;10.20;2.97;;;24.10;55.20;;;;;;4989805;28;21001;-77
2023/02/03 11:55:31;;;;;;;14.40;3.90;;;24.10;54.90;;;;;;4990189;28;20443;-78
2023/02/03 11:58:08;;;;;;;10.40;3.33;;;24.10;54.90;;;;;;4990829;28;20467;-77
2023/02/03 12:00:38;;;;;;;14.07;3.80;;;24.10;54.60;;;;;;4990484;28;20454;-77
2023/02/03 12:03:25;;;;;;;11.70;3.43;;;24.10;54.70;;;;;;4985833;28;20469;-76
2023/02/03 12:06:07;;;;;;;12.63;3.87;;;24.10;54.70;;;;;;4981812;28;20464;-76
2023/02/03 12:08:44;;;;;;;11.83;3.80;;;23.90;54.40;;;;;;4989063;28;20988;-75
2023/02/03 12:11:18;;;;;;;12.07;3.13;;;23.90;54.90;;;;;;4987789;28;20472;-78
2023/02/03 12:13:57;;;;;;;14.40;3.73;;;23.80;54.80;;;;;;4994088;28;20453;-76
2023/02/03 12:16:35;;;;;;;8.93;3.60;;;23.60;54.90;;;;;;4989176;28;20950;-77
2023/02/03 12:19:09;;;;;;;11.73;3.30;;;23.50;54.80;;;;;;4989821;28;20456;-79
2023/02/03 12:21:43;;;;;;;8.93;2.77;;;23.30;54.80;;;;;;4988222;28;20444;-77
2023/02/03 12:24:29;;;;;;;11.20;3.40;;;23.20;55.20;;;;;;4987996;28;20419;-77
2023/02/03 12:27:02;;;;;;;10.33;3.20;;;23.00;55.50;;;;;;4989429;28;20481;-77
2023/02/03 12:29:33;;;;;;;11.17;3.87;;;22.90;55.40;;;;;;4989485;28;20453;-77
2023/02/03 12:32:05;;;;;;;10.63;3.67;;;22.80;55.70;;;;;;4989824;28;20472;-77
2023/02/03 12:34:34;;;;;;;11.53;3.23;;;22.70;55.70;;;;;;4993003;28;20473;-78
2023/02/03 12:37:03;;;;;;;10.23;3.50;;;22.70;55.90;;;;;;4987064;28;20465;-76
2023/02/03 12:39:33;;;;;;;8.70;2.90;;;22.70;56.00;;;;;;4989117;28;20453;-77
2023/02/03 12:42:02;;;;;;;11.10;4.07;;;22.70;56.10;;;;;;4993703;28;20477;-77
2023/02/03 12:44:34;;;;;;;11.27;3.97;;;22.80;56.20;;;;;;4991326;28;20427;-78
2023/02/03 12:47:04;;;;;;;15.40;3.30;;;22.90;55.90;;;;;;4990392;28;20457;-78
2023/02/03 12:49:36;;;;;;;12.50;3.70;;;22.90;55.60;;;;;;4993759;28;21032;-79
2023/02/03 12:52:09;;;;;;;9.10;3.50;;;23.00;55.70;;;;;;4996517;28;20485;-78
2023/02/03 12:54:39;;;;;;;13.90;3.17;;;22.90;55.40;;;;;;4996024;28;20448;-77
2023/02/03 12:57:15;;;;;;;12.10;3.27;;;22.90;55.40;;;;;;4992714;28;20476;-77
2023/02/03 12:59:54;;;;;;;20.00;3.87;;;23.00;55.60;;;;;;4996551;28;20435;-78